Time;durP1;ratioP1;P1;durP2;ratioP2;P2;SDS_P1;SDS_P2;PMS_P1;PMS_P2;Temp;Humidity;BMP_temperature;BMP_pressure;BME280_temperature;BME280_humidity;BME280_pressure;Samples;Min_cycle;Max_cycle;Signal;HPM_P1;HPM_P2
2021/08/21 00:02:22;;;;;;;33.10;18.77;;;17.90;99.90;;;;;;5059067;28;20552;-76
2021/08/21 00:04:51;;;;;;;34.80;19.13;;;17.80;99.90;;;;;;5059935;28;20313;-75
2021/08/21 00:07:18;;;;;;;29.47;19.07;;;17.80;99.90;;;;;;5055603;28;20689;-77
2021/08/21 00:09:47;;;;;;;39.67;20.53;;;17.80;99.90;;;;;;5060027;28;20230;-77
2021/08/21 00:12:14;;;;;;;33.93;19.10;;;17.70;99.90;;;;;;5055541;28;20639;-80
2021/08/21 00:14:41;;;;;;;39.60;19.70;;;17.70;99.90;;;;;;5057674;28;20346;-79
2021/08/21 00:17:08;;;;;;;40.53;20.57;;;17.70;99.90;;;;;;5063361;28;20293;-77
2021/08/21 00:19:35;;;;;;;41.70;21.37;;;17.80;99.90;;;;;;5055978;28;20752;-76
2021/08/21 00:22:04;;;;;;;47.27;23.20;;;17.80;99.90;;;;;;5054427;28;20193;-76
2021/08/21 00:24:31;;;;;;;48.97;22.77;;;17.80;99.90;;;;;;5056262;28;20744;-76
2021/08/21 00:26:57;;;;;;;47.33;23.43;;;17.80;99.90;;;;;;5055038;28;20231;-76
2021/08/21 00:29:24;;;;;;;49.93;24.23;;;17.80;99.90;;;;;;5052859;28;20840;-75
2021/08/21 00:31:51;;;;;;;47.10;24.33;;;17.70;99.90;;;;;;5055095;28;20295;-77
2021/08/21 00:34:18;;;;;;;41.87;22.37;;;17.70;99.90;;;;;;5056705;28;20203;-78
2021/08/21 00:36:46;;;;;;;46.97;23.63;;;17.60;99.90;;;;;;5056420;28;20697;-76
2021/08/21 00:39:14;;;;;;;42.70;23.17;;;17.50;99.90;;;;;;5053754;28;20200;-79
2021/08/21 00:41:41;;;;;;;45.27;22.77;;;17.50;99.90;;;;;;5053017;28;20203;-75
2021/08/21 00:44:08;;;;;;;48.00;24.17;;;17.50;99.90;;;;;;5052524;28;20295;-77
2021/08/21 00:46:53;;;;;;;46.70;23.73;;;17.60;99.90;;;;;;5054926;28;20219;-75
2021/08/21 00:49:20;;;;;;;47.30;23.93;;;17.60;99.90;;;;;;5054455;28;20271;-75
2021/08/21 00:51:47;;;;;;;48.73;23.53;;;17.60;99.90;;;;;;5056713;28;20196;-76
2021/08/21 00:54:15;;;;;;;47.00;24.10;;;17.50;99.90;;;;;;5053146;28;20196;-78
2021/08/21 00:56:42;;;;;;;45.23;22.83;;;17.50;99.90;;;;;;5059563;28;20612;-76
2021/08/21 00:59:10;;;;;;;52.90;24.50;;;17.40;99.90;;;;;;5052157;28;20236;-75
2021/08/21 01:01:37;;;;;;;48.07;24.30;;;17.50;99.90;;;;;;5059510;28;20683;-76
2021/08/21 01:04:04;;;;;;;51.20;25.03;;;17.40;99.90;;;;;;5057100;28;20279;-78
2021/08/21 01:06:31;;;;;;;52.20;24.87;;;17.40;99.90;;;;;;5061201;28;20231;-75
2021/08/21 01:08:58;;;;;;;57.97;26.30;;;17.40;99.90;;;;;;5057755;28;20192;-79
2021/08/21 01:11:27;;;;;;;49.90;23.93;;;17.50;99.90;;;;;;5058344;28;20630;-78
2021/08/21 01:13:54;;;;;;;43.87;21.20;;;17.50;99.90;;;;;;5057167;28;20203;-78
2021/08/21 01:16:21;;;;;;;46.60;24.13;;;17.40;99.90;;;;;;5055742;28;20200;-79
2021/08/21 01:18:48;;;;;;;51.57;24.17;;;17.40;99.90;;;;;;5061244;28;20195;-79
2021/08/21 01:21:15;;;;;;;51.10;25.13;;;17.30;99.90;;;;;;5058237;28;20243;-79
2021/08/21 01:23:42;;;;;;;57.67;27.03;;;17.30;99.90;;;;;;5058811;28;20201;-78
2021/08/21 01:26:11;;;;;;;57.67;26.83;;;17.40;99.90;;;;;;5056605;28;20298;-77
2021/08/21 01:28:39;;;;;;;54.70;25.63;;;17.50;99.90;;;;;;5055184;28;20212;-77
2021/08/21 01:31:07;;;;;;;54.50;24.07;;;17.30;99.90;;;;;;5057940;28;20646;-77
2021/08/21 01:33:35;;;;;;;46.23;24.27;;;17.30;99.90;;;;;;5060343;28;20208;-77
2021/08/21 01:36:02;;;;;;;54.00;25.60;;;17.10;99.90;;;;;;5061959;28;20306;-78
2021/08/21 01:38:29;;;;;;;58.03;26.47;;;17.20;99.90;;;;;;5075800;28;20304;-81
2021/08/21 01:40:56;;;;;;;51.87;26.07;;;17.20;99.90;;;;;;5075553;28;20226;-79
2021/08/21 01:43:23;;;;;;;51.17;25.17;;;17.20;99.90;;;;;;5075570;28;20585;-80
2021/08/21 01:45:52;;;;;;;47.63;24.60;;;17.10;99.90;;;;;;5075573;28;20306;-80
2021/08/21 01:48:19;;;;;;;47.80;23.80;;;17.10;99.90;;;;;;5075594;28;20203;-81
2021/08/21 01:50:46;;;;;;;41.87;21.70;;;17.10;99.90;;;;;;5075341;28;20377;-78
2021/08/21 01:53:14;;;;;;;44.80;22.30;;;17.00;99.90;;;;;;5075545;28;20200;-81
2021/08/21 01:55:41;;;;;;;45.23;21.37;;;17.10;99.90;;;;;;5075247;28;20748;-80
2021/08/21 01:58:08;;;;;;;61.63;24.40;;;17.10;99.90;;;;;;5075674;28;20278;-79
2021/08/21 02:00:36;;;;;;;48.57;24.43;;;17.20;99.90;;;;;;5075528;28;20238;-78
2021/08/21 02:03:07;;;;;;;50.57;23.33;;;17.30;99.90;;;;;;5075310;28;20231;-77
2021/08/21 02:05:34;;;;;;;41.93;21.33;;;17.30;99.90;;;;;;5075167;28;20216;-75
2021/08/21 02:08:00;;;;;;;40.93;21.63;;;17.20;99.90;;;;;;5075113;28;20677;-76
2021/08/21 02:10:27;;;;;;;39.07;20.73;;;17.20;99.90;;;;;;5075146;28;20231;-75
2021/08/21 02:12:54;;;;;;;39.50;21.03;;;17.30;99.90;;;;;;5075232;28;20204;-75
2021/08/21 02:15:21;;;;;;;38.43;18.93;;;17.40;99.90;;;;;;5074713;28;20235;-80
2021/08/21 02:17:48;;;;;;;30.50;17.37;;;17.50;99.90;;;;;;5074954;28;21860;-76
2021/08/21 02:20:17;;;;;;;28.20;16.77;;;17.40;99.90;;;;;;5074725;28;20283;-78
2021/08/21 02:22:45;;;;;;;31.77;17.33;;;17.40;99.90;;;;;;5075036;28;20286;-81
2021/08/21 02:25:14;;;;;;;29.27;17.20;;;17.40;99.90;;;;;;5074610;28;20658;-75
2021/08/21 02:27:44;;;;;;;32.07;18.07;;;17.40;99.90;;;;;;5075343;28;20203;-79
2021/08/21 02:30:12;;;;;;;33.13;19.17;;;17.30;99.90;;;;;;5075522;28;20253;-78
2021/08/21 02:32:39;;;;;;;31.80;17.83;;;17.30;99.90;;;;;;5075156;28;20253;-78
2021/08/21 02:35:06;;;;;;;32.67;17.40;;;17.30;99.90;;;;;;5074627;28;20717;-76
2021/08/21 02:37:35;;;;;;;34.97;18.30;;;17.30;99.90;;;;;;5074655;28;20297;-75
2021/08/21 02:40:04;;;;;;;34.33;18.13;;;17.30;99.90;;;;;;5074677;28;20576;-75
2021/08/21 02:42:30;;;;;;;34.67;18.67;;;17.30;99.90;;;;;;5074564;28;20294;-75
2021/08/21 02:44:57;;;;;;;43.57;20.73;;;17.20;99.90;;;;;;5074542;28;20207;-76
2021/08/21 02:47:24;;;;;;;30.93;18.97;;;17.20;99.90;;;;;;5074148;28;20306;-75
2021/08/21 02:49:51;;;;;;;27.17;16.47;;;17.10;99.90;;;;;;5074540;28;20227;-78
2021/08/21 02:52:18;;;;;;;26.33;15.83;;;17.00;99.90;;;;;;5074555;28;20252;-76
2021/08/21 02:54:46;;;;;;;25.63;15.30;;;17.00;99.90;;;;;;5074076;28;20286;-76
2021/08/21 02:57:13;;;;;;;28.00;16.27;;;17.00;99.90;;;;;;5074483;28;20204;-75
2021/08/21 02:59:40;;;;;;;27.27;14.63;;;17.00;99.90;;;;;;5074014;28;20633;-79
2021/08/21 03:02:07;;;;;;;32.03;15.80;;;17.10;99.90;;;;;;5074291;28;20719;-77
2021/08/21 03:04:34;;;;;;;28.73;14.70;;;17.20;99.90;;;;;;5073791;28;20200;-78
2021/08/21 03:07:01;;;;;;;26.20;14.60;;;17.30;99.90;;;;;;5074390;28;20306;-78
2021/08/21 03:09:28;;;;;;;28.93;15.80;;;17.20;99.90;;;;;;5073898;28;20203;-79
2021/08/21 03:11:56;;;;;;;29.07;15.50;;;17.10;99.90;;;;;;5074078;28;20257;-80
2021/08/21 03:14:23;;;;;;;24.07;13.77;;;17.20;99.90;;;;;;5074267;28;20288;-78
2021/08/21 03:16:50;;;;;;;22.73;13.60;;;17.10;99.90;;;;;;5073750;28;20286;-81
2021/08/21 03:19:17;;;;;;;22.73;12.77;;;17.10;99.90;;;;;;5074119;28;20418;-80
2021/08/21 03:21:44;;;;;;;23.50;12.57;;;17.10;99.90;;;;;;5073951;28;20231;-79
2021/08/21 03:24:10;;;;;;;19.47;12.10;;;17.00;99.90;;;;;;5073666;28;20202;-78
2021/08/21 03:26:37;;;;;;;21.57;12.07;;;17.00;99.90;;;;;;5073018;28;20314;-81
2021/08/21 03:29:06;;;;;;;22.93;11.90;;;16.90;99.90;;;;;;5076699;28;20202;-77
2021/08/21 03:31:32;;;;;;;22.33;11.80;;;16.90;99.90;;;;;;5084364;28;20306;-77
2021/08/21 03:33:59;;;;;;;17.63;11.40;;;17.00;99.90;;;;;;5073443;28;20679;-78
2021/08/21 03:36:26;;;;;;;19.20;12.37;;;17.00;99.90;;;;;;5073547;28;20688;-77
2021/08/21 03:38:53;;;;;;;18.07;10.33;;;17.00;99.90;;;;;;5073199;28;20200;-76
2021/08/21 03:41:20;;;;;;;18.77;10.63;;;17.00;99.90;;;;;;5073327;28;20256;-77
2021/08/21 03:43:47;;;;;;;23.30;11.27;;;16.90;99.90;;;;;;5073759;28;20298;-76
2021/08/21 03:46:15;;;;;;;19.90;10.87;;;16.90;99.90;;;;;;5072903;28;20224;-77
2021/08/21 03:48:42;;;;;;;17.77;10.20;;;16.80;99.90;;;;;;5073477;28;20226;-77
2021/08/21 03:51:09;;;;;;;22.50;11.00;;;16.80;99.90;;;;;;5073371;28;20222;-78
2021/08/21 03:53:35;;;;;;;20.97;10.67;;;16.80;99.90;;;;;;5073518;28;20281;-78
2021/08/21 03:56:02;;;;;;;18.20;10.17;;;16.80;99.90;;;;;;5073228;28;20631;-76
2021/08/21 03:58:29;;;;;;;18.33;10.17;;;16.70;99.90;;;;;;5073048;28;20282;-77
2021/08/21 04:00:56;;;;;;;15.43;10.03;;;16.70;99.90;;;;;;5073300;28;20203;-77
2021/08/21 04:03:25;;;;;;;16.57;10.20;;;16.70;99.90;;;;;;5073269;28;20196;-79
2021/08/21 04:05:51;;;;;;;15.37;9.97;;;16.80;99.90;;;;;;5073238;28;20261;-80
2021/08/21 04:08:18;;;;;;;20.37;10.83;;;16.70;99.90;;;;;;5073059;28;20294;-77
2021/08/21 04:10:45;;;;;;;16.93;10.43;;;16.70;99.90;;;;;;5073373;28;20235;-79
2021/08/21 04:13:12;;;;;;;21.93;10.73;;;16.70;99.90;;;;;;5073151;28;20278;-77
2021/08/21 04:15:39;;;;;;;19.50;10.83;;;16.70;99.90;;;;;;5073119;28;20306;-77
2021/08/21 04:18:06;;;;;;;17.03;10.70;;;16.70;99.90;;;;;;5073609;28;20290;-80
2021/08/21 04:20:34;;;;;;;18.60;9.97;;;16.60;99.90;;;;;;5073230;28;20613;-79
2021/08/21 04:23:01;;;;;;;15.00;9.47;;;16.70;99.90;;;;;;5073342;28;20206;-78
2021/08/21 04:25:28;;;;;;;16.53;9.97;;;16.60;99.90;;;;;;5077532;28;20294;-79
2021/08/21 04:27:55;;;;;;;23.70;10.30;;;16.60;99.90;;;;;;5084697;28;20247;-78
2021/08/21 04:30:22;;;;;;;16.03;9.23;;;16.60;99.90;;;;;;5085694;28;20226;-78
2021/08/21 04:32:48;;;;;;;18.47;9.47;;;16.70;99.90;;;;;;5085237;28;20199;-79
2021/08/21 04:35:15;;;;;;;15.63;9.57;;;16.60;99.90;;;;;;5084900;28;20207;-78
2021/08/21 04:37:43;;;;;;;19.13;9.67;;;16.60;99.90;;;;;;5078564;28;20223;-78
2021/08/21 04:40:11;;;;;;;13.83;8.67;;;16.70;99.90;;;;;;5089671;28;20210;-76
2021/08/21 04:42:39;;;;;;;15.10;9.07;;;16.60;99.90;;;;;;5090027;28;20199;-76
2021/08/21 04:45:08;;;;;;;16.00;9.13;;;16.60;99.90;;;;;;5089237;28;20257;-78
2021/08/21 04:47:35;;;;;;;15.17;8.47;;;16.60;99.90;;;;;;5089344;28;20227;-77
2021/08/21 04:50:04;;;;;;;13.57;8.93;;;16.70;99.90;;;;;;5078022;28;20231;-80
2021/08/21 04:52:31;;;;;;;13.83;8.93;;;16.70;99.90;;;;;;5073225;28;20207;-77
2021/08/21 04:54:59;;;;;;;18.17;9.37;;;16.60;99.90;;;;;;5073198;28;20259;-76
2021/08/21 04:57:26;;;;;;;16.97;8.80;;;16.70;99.90;;;;;;5072550;28;20209;-77
2021/08/21 04:59:53;;;;;;;16.57;9.00;;;16.60;99.90;;;;;;5072229;28;20286;-76
2021/08/21 05:02:19;;;;;;;17.50;9.67;;;16.70;99.90;;;;;;5072665;28;20283;-77
2021/08/21 05:04:46;;;;;;;13.77;8.30;;;16.60;99.90;;;;;;5072056;28;20225;-77
2021/08/21 05:07:13;;;;;;;14.03;7.93;;;16.60;99.90;;;;;;5072568;28;20225;-77
2021/08/21 05:09:40;;;;;;;14.07;8.57;;;16.80;99.90;;;;;;5072161;28;20215;-78
2021/08/21 05:12:09;;;;;;;17.80;8.83;;;16.80;99.90;;;;;;5072234;28;20551;-76
2021/08/21 05:14:35;;;;;;;18.77;9.13;;;16.80;99.90;;;;;;5072165;28;20287;-81
2021/08/21 05:17:05;;;;;;;16.73;8.93;;;16.90;99.90;;;;;;5072172;28;20242;-81
2021/08/21 05:19:34;;;;;;;18.90;8.73;;;17.00;99.90;;;;;;5072265;28;20200;-77
2021/08/21 05:22:20;;;;;;;14.90;8.47;;;17.20;99.90;;;;;;5072079;28;20191;-77
2021/08/21 05:24:48;;;;;;;16.30;8.40;;;17.70;99.90;;;;;;5072339;28;20200;-77
2021/08/21 05:27:17;;;;;;;10.23;6.77;;;18.30;99.90;;;;;;5071963;28;20694;-77
2021/08/21 05:29:44;;;;;;;12.60;6.77;;;18.70;99.90;;;;;;5072297;28;20200;-82
2021/08/21 05:32:11;;;;;;;13.73;6.70;;;19.10;99.90;;;;;;5071932;28;20299;-80
2021/08/21 05:34:38;;;;;;;16.17;7.03;;;19.50;99.90;;;;;;5072199;28;20282;-81
2021/08/21 05:37:05;;;;;;;13.13;7.37;;;19.80;99.90;;;;;;5072503;28;20261;-78
2021/08/21 05:39:32;;;;;;;10.27;6.33;;;19.80;99.90;;;;;;5072182;28;20199;-76
2021/08/21 05:41:59;;;;;;;11.57;7.20;;;19.60;99.90;;;;;;5072243;28;20200;-75
2021/08/21 05:44:28;;;;;;;10.93;7.10;;;19.50;99.90;;;;;;5071767;28;20298;-79
2021/08/21 05:46:55;;;;;;;14.53;7.43;;;19.30;99.90;;;;;;5071950;28;20314;-79
2021/08/21 05:49:22;;;;;;;10.83;6.70;;;19.20;99.90;;;;;;5071640;28;20290;-75
2021/08/21 05:51:48;;;;;;;11.87;7.27;;;19.10;99.90;;;;;;5074619;28;20290;-79
2021/08/21 05:54:15;;;;;;;13.77;7.80;;;19.10;99.90;;;;;;5075416;28;20230;-79
2021/08/21 05:56:42;;;;;;;17.67;7.87;;;19.10;99.90;;;;;;5075671;28;20239;-80
2021/08/21 05:59:09;;;;;;;10.67;6.93;;;19.00;99.90;;;;;;5075739;28;20620;-75
2021/08/21 06:01:38;;;;;;;13.93;7.83;;;19.10;99.90;;;;;;5075211;28;20234;-76
2021/08/21 06:04:06;;;;;;;11.50;7.10;;;19.20;99.90;;;;;;5076037;28;20211;-75
2021/08/21 06:06:34;;;;;;;10.20;6.73;;;19.20;99.90;;;;;;5075237;28;20196;-75
2021/08/21 06:09:01;;;;;;;9.63;6.60;;;19.10;99.90;;;;;;5074791;28;20287;-81
2021/08/21 06:11:28;;;;;;;9.17;7.17;;;19.30;99.90;;;;;;5075233;28;20303;-76
2021/08/21 06:13:55;;;;;;;10.97;6.77;;;19.50;99.90;;;;;;5074609;28;20243;-81
2021/08/21 06:16:22;;;;;;;9.73;6.70;;;19.60;99.90;;;;;;5074220;28;20286;-80
2021/08/21 06:18:50;;;;;;;8.33;6.27;;;19.70;99.90;;;;;;5074446;28;20713;-76
2021/08/21 06:21:17;;;;;;;11.97;6.40;;;19.90;99.90;;;;;;5074487;28;20286;-77
2021/08/21 06:23:44;;;;;;;9.37;6.40;;;20.10;99.90;;;;;;5074539;28;20227;-77
2021/08/21 06:26:11;;;;;;;10.30;6.50;;;20.20;99.90;;;;;;5075228;28;20204;-76
2021/08/21 06:28:38;;;;;;;7.07;5.83;;;20.40;99.90;;;;;;5075200;28;20306;-75
2021/08/21 06:31:05;;;;;;;8.47;5.87;;;20.50;99.90;;;;;;5059258;28;20246;-77
2021/08/21 06:33:32;;;;;;;7.33;5.53;;;20.70;99.90;;;;;;5074045;28;20239;-78
2021/08/21 06:36:00;;;;;;;6.22;5.20;;;20.80;99.90;;;;;;5074675;28;20231;-77
2021/08/21 06:38:27;;;;;;;6.10;5.00;;;20.80;99.90;;;;;;5074845;28;20234;-75
2021/08/21 06:40:54;;;;;;;7.37;5.20;;;20.70;99.90;;;;;;5073916;28;20659;-75
2021/08/21 06:43:21;;;;;;;6.50;5.43;;;20.60;99.90;;;;;;5074588;28;20301;-81
2021/08/21 06:45:48;;;;;;;7.03;5.20;;;20.50;99.90;;;;;;5074260;28;20295;-82
2021/08/21 06:48:15;;;;;;;6.07;5.33;;;20.50;99.90;;;;;;5073945;28;20246;-78
2021/08/21 06:50:43;;;;;;;7.40;5.33;;;20.30;99.90;;;;;;5074314;28;20203;-78
2021/08/21 06:53:12;;;;;;;6.23;5.20;;;20.30;99.90;;;;;;5073533;28;20200;-77
2021/08/21 06:55:39;;;;;;;6.23;5.20;;;20.30;99.90;;;;;;5073641;28;20207;-78
2021/08/21 06:58:06;;;;;;;8.00;5.43;;;20.40;99.90;;;;;;5075179;28;20282;-78
2021/08/21 07:00:33;;;;;;;6.83;4.93;;;20.50;99.90;;;;;;5073338;28;20725;-78
2021/08/21 07:03:00;;;;;;;8.10;4.97;;;20.50;99.90;;;;;;5073320;28;20231;-80
2021/08/21 07:05:27;;;;;;;9.10;5.30;;;20.50;99.90;;;;;;5074361;28;20282;-77
2021/08/21 07:07:54;;;;;;;6.13;5.17;;;20.40;99.90;;;;;;5073252;28;20219;-80
2021/08/21 07:10:22;;;;;;;9.00;5.37;;;20.50;99.90;;;;;;5072829;28;20211;-77
2021/08/21 07:12:49;;;;;;;8.50;5.40;;;20.50;99.90;;;;;;5073470;28;20235;-77
2021/08/21 07:15:16;;;;;;;7.90;4.83;;;20.30;99.90;;;;;;5073417;28;20200;-77
2021/08/21 07:17:43;;;;;;;9.17;5.00;;;20.40;99.90;;;;;;5073420;28;20287;-77
2021/08/21 07:20:10;;;;;;;5.90;4.40;;;20.50;99.90;;;;;;5072619;28;20202;-78
2021/08/21 07:22:37;;;;;;;8.83;4.43;;;20.60;99.90;;;;;;5070361;28;20200;-77
2021/08/21 07:25:04;;;;;;;11.60;4.20;;;20.70;99.90;;;;;;5072535;28;20227;-77
2021/08/21 07:27:33;;;;;;;4.60;4.03;;;20.80;99.90;;;;;;5072843;28;20645;-78
2021/08/21 07:30:00;;;;;;;5.47;3.67;;;20.80;99.90;;;;;;5073256;28;20287;-78
2021/08/21 07:32:29;;;;;;;8.57;4.13;;;20.70;99.90;;;;;;5073568;28;20202;-79
2021/08/21 07:34:56;;;;;;;6.53;4.20;;;20.80;99.90;;;;;;5073795;28;20265;-79
2021/08/21 07:37:23;;;;;;;6.97;4.10;;;20.90;99.90;;;;;;5073444;28;20207;-80
2021/08/21 07:39:50;;;;;;;4.47;3.67;;;21.10;99.90;;;;;;5073001;28;20290;-78
2021/08/21 07:42:17;;;;;;;6.70;3.60;;;21.10;99.90;;;;;;5072209;28;20231;-78
2021/08/21 07:44:45;;;;;;;4.65;3.13;;;21.40;99.90;;;;;;5072845;28;20274;-77
2021/08/21 07:47:12;;;;;;;3.77;3.10;;;21.50;99.90;;;;;;5073108;28;20314;-81
2021/08/21 07:49:39;;;;;;;3.50;3.00;;;21.60;99.90;;;;;;5078840;28;20723;-78
2021/08/21 07:52:06;;;;;;;5.55;3.35;;;21.90;99.90;;;;;;5075303;28;20235;-77
2021/08/21 07:54:33;;;;;;;7.18;3.53;;;22.20;99.90;;;;;;5074597;28;20196;-77
2021/08/21 07:57:00;;;;;;;3.38;2.80;;;22.60;99.90;;;;;;5072987;28;20286;-81
2021/08/21 07:59:27;;;;;;;3.95;2.67;;;22.80;99.90;;;;;;5073148;28;20613;-78
2021/08/21 08:01:55;;;;;;;3.75;2.72;;;23.10;99.90;;;;;;5073259;28;20282;-78
2021/08/21 08:04:22;;;;;;;6.88;2.50;;;23.50;99.90;;;;;;5085128;28;20290;-81
2021/08/21 08:06:49;;;;;;;5.03;2.50;;;23.90;99.90;;;;;;5086853;28;20719;-77
2021/08/21 08:09:16;;;;;;;5.13;2.30;;;24.00;99.90;;;;;;5079722;28;20313;-77
2021/08/21 08:11:43;;;;;;;3.13;2.50;;;24.40;99.90;;;;;;5074620;28;20282;-77
2021/08/21 08:14:10;;;;;;;2.95;2.35;;;24.50;99.90;;;;;;5071748;28;20207;-78
2021/08/21 08:16:37;;;;;;;2.65;2.13;;;24.70;99.90;;;;;;5069001;28;20210;-80
2021/08/21 08:19:05;;;;;;;2.60;2.20;;;24.70;99.90;;;;;;5067392;28;20302;-78
2021/08/21 08:21:32;;;;;;;2.65;2.08;;;25.10;99.90;;;;;;5071757;28;20234;-78
2021/08/21 08:23:59;;;;;;;2.42;2.20;;;25.20;99.90;;;;;;5072304;28;20658;-76
2021/08/21 08:26:25;;;;;;;5.05;2.08;;;25.30;99.90;;;;;;5072254;28;20701;-77
2021/08/21 08:28:52;;;;;;;4.25;2.20;;;25.50;99.90;;;;;;5072686;28;20219;-78
2021/08/21 08:31:19;;;;;;;4.60;1.90;;;25.80;99.90;;;;;;5071021;28;20789;-79
2021/08/21 08:33:46;;;;;;;3.20;2.20;;;26.20;99.90;;;;;;5071909;28;20241;-79
2021/08/21 08:36:14;;;;;;;2.38;2.15;;;28.00;99.90;;;;;;5071204;28;20750;-77
2021/08/21 08:38:41;;;;;;;2.30;1.75;;;29.10;99.90;;;;;;5072988;28;20282;-76
2021/08/21 08:41:10;;;;;;;2.55;1.98;;;30.20;99.90;;;;;;5072303;28;20203;-78
2021/08/21 08:43:38;;;;;;;2.50;2.15;;;31.20;99.90;;;;;;5071895;28;20195;-77
2021/08/21 08:46:05;;;;;;;2.97;1.88;;;31.20;99.90;;;;;;5072488;28;20223;-77
2021/08/21 08:48:35;;;;;;;5.43;2.10;;;31.00;99.90;;;;;;5072477;28;20305;-78
2021/08/21 08:51:02;;;;;;;2.40;1.52;;;31.10;99.90;;;;;;5072925;28;20222;-76
2021/08/21 08:53:30;;;;;;;4.90;2.00;;;30.80;99.90;;;;;;5072752;28;20286;-77
2021/08/21 08:55:57;;;;;;;2.42;1.90;;;29.50;99.90;;;;;;5072836;28;20210;-77
2021/08/21 08:58:24;;;;;;;2.65;1.85;;;29.90;99.90;;;;;;5072530;28;20728;-76
2021/08/21 09:00:51;;;;;;;4.32;1.77;;;30.80;99.90;;;;;;5072663;28;20206;-79
2021/08/21 09:03:20;;;;;;;1.85;1.48;;;30.90;99.90;;;;;;5071860;28;20200;-80
2021/08/21 09:05:48;;;;;;;3.92;2.05;;;31.20;99.90;;;;;;5072399;28;20248;-78
2021/08/21 09:08:23;;;;;;;2.95;1.70;;;31.60;99.90;;;;;;5072435;28;20258;-76
2021/08/21 09:10:52;;;;;;;4.25;1.75;;;31.20;99.90;;;;;;5072521;28;20240;-77
2021/08/21 09:13:20;;;;;;;1.85;1.65;;;31.20;99.90;;;;;;5072794;28;20246;-77
2021/08/21 09:15:49;;;;;;;3.75;1.50;;;32.20;99.90;;;;;;5072059;28;20227;-80
2021/08/21 09:18:18;;;;;;;1.30;1.20;;;32.60;99.90;;;;;;5071623;28;20290;-77
2021/08/21 09:21:00;;;;;;;1.65;1.50;;;33.10;99.90;;;;;;5072549;28;20307;-80
2021/08/21 09:23:30;;;;;;;3.03;1.35;;;32.80;99.90;;;;;;5072600;28;20216;-79
2021/08/21 09:26:07;;;;;;;3.13;1.40;;;33.10;99.90;;;;;;5075265;28;20211;-77
2021/08/21 09:28:34;;;;;;;1.17;1.13;;;33.50;99.90;;;;;;5076204;28;20315;-75
2021/08/21 09:31:04;;;;;;;1.63;1.45;;;34.00;99.90;;;;;;5075850;28;20230;-76
2021/08/21 09:33:32;;;;;;;1.50;1.40;;;34.40;99.90;;;;;;5076270;28;20200;-78
2021/08/21 09:35:59;;;;;;;1.60;1.50;;;33.70;99.90;;;;;;5077001;28;20618;-76
2021/08/21 09:38:29;;;;;;;2.65;1.45;;;33.50;99.90;;;;;;5075567;28;20732;-78
2021/08/21 09:41:01;;;;;;;1.13;1.02;;;33.50;99.90;;;;;;5075694;28;20196;-79
2021/08/21 09:43:31;;;;;;;3.00;1.30;;;33.60;99.90;;;;;;5075691;28;20542;-78
2021/08/21 09:46:16;;;;;;;3.88;1.38;;;34.20;99.90;;;;;;5075683;28;20206;-76
2021/08/21 09:49:03;;;;;;;1.42;1.30;;;34.60;99.90;;;;;;5055718;28;20226;-76
2021/08/21 09:51:42;;;;;;;3.00;1.63;;;35.20;99.90;;;;;;5068000;28;20255;-79
2021/08/21 09:54:11;;;;;;;2.10;1.50;;;34.60;99.90;;;;;;5075213;28;20257;-78
2021/08/21 09:56:42;;;;;;;2.08;1.30;;;34.10;99.90;;;;;;5075495;28;20283;-75
2021/08/21 09:59:09;;;;;;;2.25;1.50;;;33.90;99.90;;;;;;5075447;28;20217;-77
2021/08/21 10:01:37;;;;;;;3.72;1.55;;;33.00;99.90;;;;;;5076030;28;20194;-77
2021/08/21 10:04:05;;;;;;;2.85;1.60;;;32.90;99.90;;;;;;5082525;28;20262;-78
2021/08/21 10:06:31;;;;;;;1.80;1.70;;;32.50;99.90;;;;;;5095739;28;20281;-76
2021/08/21 10:09:02;;;;;;;1.60;1.50;;;32.50;99.90;;;;;;5080437;28;20226;-78
2021/08/21 10:11:30;;;;;;;1.92;1.63;;;31.60;99.90;;;;;;5075781;28;20282;-80
2021/08/21 10:13:58;;;;;;;3.10;1.75;;;30.80;99.90;;;;;;5075836;28;20204;-79
2021/08/21 10:16:29;;;;;;;1.65;1.55;;;30.20;99.90;;;;;;5075528;28;20196;-81
2021/08/21 10:18:58;;;;;;;2.10;1.55;;;30.40;99.90;;;;;;5075485;28;20207;-82
2021/08/21 10:21:25;;;;;;;1.95;1.75;;;31.00;99.90;;;;;;5075518;28;20200;-80
2021/08/21 10:23:53;;;;;;;2.33;1.75;;;31.30;99.90;;;;;;5074549;28;20677;-78
2021/08/21 10:26:26;;;;;;;3.63;1.70;;;31.00;99.90;;;;;;5074897;28;20191;-79
2021/08/21 10:28:55;;;;;;;3.45;1.73;;;30.70;99.90;;;;;;5083674;28;20293;-81
2021/08/21 10:31:37;;;;;;;3.28;1.80;;;30.90;99.90;;;;;;5075877;28;20199;-80
2021/08/21 10:34:06;;;;;;;2.80;1.90;;;30.40;99.90;;;;;;5079261;28;20611;-78
2021/08/21 10:36:57;;;;;;;2.78;2.00;;;30.50;99.90;;;;;;5080444;28;20219;-77
2021/08/21 10:39:35;;;;;;;2.00;1.88;;;31.20;99.90;;;;;;5066168;28;20274;-77
2021/08/21 10:42:24;;;;;;;2.10;1.90;;;31.90;99.90;;;;;;5081754;28;20184;-79
2021/08/21 10:44:52;;;;;;;2.28;2.00;;;31.90;99.90;;;;;;5073282;28;20649;-78
2021/08/21 10:47:40;;;;;;;2.88;1.92;;;31.50;99.90;;;;;;5075835;28;20239;-78
2021/08/21 10:50:30;;;;;;;2.85;1.75;;;31.40;99.90;;;;;;5073809;28;20215;-79
2021/08/21 10:52:58;;;;;;;2.85;2.10;;;32.20;99.90;;;;;;5072581;28;20191;-79
2021/08/21 10:55:27;;;;;;;2.55;1.92;;;32.80;99.90;;;;;;5073098;28;20735;-75
2021/08/21 10:58:05;;;;;;;2.90;2.17;;;32.60;99.90;;;;;;5073122;28;20231;-77
2021/08/21 11:00:46;;;;;;;2.83;2.17;;;32.80;99.90;;;;;;5073931;28;20230;-79
2021/08/21 11:03:16;;;;;;;2.30;2.05;;;32.50;99.90;;;;;;5079666;28;20233;-76
2021/08/21 11:05:55;;;;;;;4.30;1.70;;;31.70;99.90;;;;;;5078776;28;20243;-79
2021/08/21 11:08:23;;;;;;;3.25;2.20;;;31.90;99.90;;;;;;5080445;28;20215;-77
2021/08/21 11:11:22;;;;;;;2.05;1.88;;;31.80;99.90;;;;;;5074962;28;20290;-76
2021/08/21 11:13:55;;;;;;;3.70;1.90;;;31.70;99.90;;;;;;5072592;28;20283;-74
2021/08/21 11:16:23;;;;;;;2.35;2.08;;;31.80;99.90;;;;;;5069494;28;20221;-79
2021/08/21 11:18:53;;;;;;;2.80;2.13;;;31.60;99.90;;;;;;5074023;28;20299;-77
2021/08/21 11:21:35;;;;;;;2.45;2.10;;;31.90;99.90;;;;;;5078493;28;20223;-78
2021/08/21 11:24:03;;;;;;;2.45;2.25;;;32.60;99.90;;;;;;5068857;28;20287;-77
2021/08/21 11:26:30;;;;;;;2.45;2.25;;;32.80;99.90;;;;;;5067544;28;20631;-78
2021/08/21 11:29:07;;;;;;;3.90;2.63;;;32.50;99.90;;;;;;5067709;28;20222;-78
2021/08/21 11:31:53;;;;;;;2.10;1.90;;;31.80;99.90;;;;;;5075469;28;20195;-77
2021/08/21 11:34:22;;;;;;;2.40;2.20;;;31.50;99.90;;;;;;5066121;28;20264;-79
2021/08/21 11:36:49;;;;;;;4.30;2.13;;;31.80;99.90;;;;;;5062785;28;20207;-77
2021/08/21 11:39:16;;;;;;;6.40;3.10;;;31.80;99.90;;;;;;5063442;28;20275;-80
2021/08/21 11:41:54;;;;;;;5.78;2.30;;;31.10;99.90;;;;;;5057979;28;20204;-78
2021/08/21 11:44:28;;;;;;;3.33;2.50;;;30.50;99.90;;;;;;5054433;28;20226;-77
2021/08/21 11:47:08;;;;;;;4.97;2.85;;;30.00;99.90;;;;;;5059976;28;20217;-80
2021/08/21 11:49:36;;;;;;;5.53;2.30;;;30.00;99.90;;;;;;5060930;28;20213;-76
2021/08/21 11:52:04;;;;;;;2.42;2.08;;;30.20;99.90;;;;;;5074549;28;20233;-79
2021/08/21 11:54:31;;;;;;;2.30;2.10;;;30.50;99.90;;;;;;5063131;28;21018;-76
2021/08/21 11:56:59;;;;;;;2.85;2.40;;;30.90;99.90;;;;;;5081891;28;20282;-76
2021/08/21 11:59:27;;;;;;;3.03;2.42;;;31.50;99.90;;;;;;5079949;28;20239;-76
2021/08/21 12:02:02;;;;;;;2.47;2.10;;;31.00;99.90;;;;;;5088450;28;20199;-77
2021/08/21 12:04:30;;;;;;;4.05;2.42;;;30.80;99.90;;;;;;5074360;28;20206;-80
2021/08/21 12:06:59;;;;;;;2.70;2.20;;;30.50;99.90;;;;;;5059347;28;20207;-79
2021/08/21 12:09:26;;;;;;;4.60;2.47;;;30.40;99.90;;;;;;5073993;28;20220;-79
2021/08/21 12:11:55;;;;;;;2.60;2.30;;;30.30;99.90;;;;;;5071933;28;20210;-81
2021/08/21 12:14:24;;;;;;;4.05;2.47;;;30.60;99.90;;;;;;5069262;28;20202;-79
2021/08/21 12:16:55;;;;;;;3.17;2.65;;;31.00;99.90;;;;;;5070072;28;20204;-78
2021/08/21 12:19:25;;;;;;;3.20;2.85;;;31.30;99.90;;;;;;5073941;28;20629;-81
2021/08/21 12:21:55;;;;;;;2.92;2.53;;;31.50;99.90;;;;;;5076651;28;20289;-77
2021/08/21 12:24:24;;;;;;;4.50;2.60;;;31.50;99.90;;;;;;5065150;28;20215;-78
2021/08/21 12:26:51;;;;;;;3.58;2.25;;;31.00;99.90;;;;;;5067640;28;20196;-76
2021/08/21 12:29:23;;;;;;;2.28;2.08;;;30.80;99.90;;;;;;5070401;28;20219;-78
2021/08/21 12:31:50;;;;;;;3.60;2.22;;;31.50;99.90;;;;;;5075007;28;20218;-76
2021/08/21 12:34:18;;;;;;;3.58;2.42;;;31.40;99.90;;;;;;5072802;28;20291;-78
2021/08/21 12:36:46;;;;;;;3.13;2.50;;;31.00;99.90;;;;;;5072329;28;20219;-77
2021/08/21 12:39:15;;;;;;;4.97;2.72;;;31.20;99.90;;;;;;5074620;28;20325;-76
2021/08/21 12:41:51;;;;;;;3.22;2.70;;;31.20;99.90;;;;;;5084986;28;20238;-76
2021/08/21 12:44:20;;;;;;;4.60;2.25;;;30.80;99.90;;;;;;5084695;28;20203;-75
2021/08/21 12:46:52;;;;;;;3.15;2.63;;;30.90;99.90;;;;;;5071729;28;20203;-76